Time;durP1;ratioP1;P1;durP2;ratioP2;P2;SDS_P1;SDS_P2;PMS_P1;PMS_P2;Temp;Humidity;BMP_temperature;BMP_pressure;BME280_temperature;BME280_humidity;BME280_pressure;Samples;Min_cycle;Max_cycle;Signal;HPM_P1;HPM_P2
2022/12/23 00:00:39;;;;;;;23.40;19.20;;;;;;;2.50;90.82;92629.38;5092761;28;20243;-70
2022/12/23 00:03:05;;;;;;;27.23;20.77;;;;;;;2.44;90.96;92620.00;5092497;28;20189;-70
2022/12/23 00:05:33;;;;;;;23.13;19.20;;;;;;;2.40;91.74;92629.19;5087094;28;20193;-70
2022/12/23 00:07:59;;;;;;;29.87;20.00;;;;;;;2.29;92.09;92630.78;5083802;28;20177;-70
2022/12/23 00:10:24;;;;;;;24.27;19.13;;;;;;;2.00;92.55;92589.75;5092758;28;20192;-71
2022/12/23 00:15:33;;;;;;;20.87;17.67;;;;;;;2.34;92.57;92630.09;5083236;28;20216;-69
2022/12/23 00:17:58;;;;;;;21.40;17.70;;;;;;;2.62;91.57;92638.63;5090253;28;20192;-70
2022/12/23 00:20:24;;;;;;;24.10;18.47;;;;;;;2.63;90.96;92644.59;5092550;28;20220;-71
2022/12/23 00:23:04;;;;;;;23.87;20.53;;;;;;;2.67;90.35;92648.25;5088901;28;20188;-70
2022/12/23 00:25:42;;;;;;;22.33;17.47;;;;;;;2.68;90.02;92636.94;5092507;28;20200;-70
2022/12/23 00:28:16;;;;;;;22.00;19.13;;;;;;;2.55;91.31;92652.66;5092223;28;20188;-70
2022/12/23 00:30:53;;;;;;;22.10;18.67;;;;;;;2.44;92.16;92650.91;5081706;28;20248;-70
2022/12/23 00:33:21;;;;;;;23.10;15.17;;;;;;;2.38;93.30;92652.59;5090829;28;20192;-70
2022/12/23 00:35:48;;;;;;;26.67;19.10;;;;;;;2.33;92.96;92638.84;5092454;28;20251;-70
2022/12/23 00:38:14;;;;;;;19.43;16.27;;;;;;;2.35;93.75;92641.97;5088516;28;20212;-70
2022/12/23 00:43:23;;;;;;;22.20;16.80;;;;;;;2.33;93.27;92644.00;5110256;28;20275;-70
2022/12/23 00:45:48;;;;;;;20.00;17.37;;;;;;;2.30;93.44;92636.72;5092652;28;20220;-70
2022/12/23 00:50:58;;;;;;;24.57;19.03;;;;;;;2.13;93.35;92630.72;5081166;28;20234;-70
2022/12/23 00:53:23;;;;;;;24.00;18.00;;;;;;;2.23;93.73;92628.31;5087834;28;20189;-70
2022/12/23 00:55:49;;;;;;;27.97;20.63;;;;;;;2.20;93.02;92627.00;5091984;28;20288;-70
2022/12/23 00:58:16;;;;;;;27.47;21.00;;;;;;;2.21;92.97;92630.38;5092075;28;20193;-71
2022/12/23 01:06:10;;;;;;;28.50;20.67;;;;;;;2.05;92.72;92605.31;5081041;28;20228;-70
2022/12/23 01:08:36;;;;;;;23.87;18.80;;;;;;;2.14;92.92;92625.34;5091863;28;20862;-70
2022/12/23 01:11:03;;;;;;;25.73;20.23;;;;;;;2.10;93.19;92631.16;5091475;28;20229;-70
2022/12/23 01:13:29;;;;;;;27.27;19.37;;;;;;;2.12;93.21;92626.59;5092105;28;20189;-70
2022/12/23 01:16:06;;;;;;;23.50;19.63;;;;;;;2.24;92.84;92635.06;5102358;28;20228;-69
2022/12/23 01:18:33;;;;;;;26.70;21.13;;;;;;;2.25;92.32;92641.75;5085443;28;20209;-70
2022/12/23 01:21:04;;;;;;;28.10;20.50;;;;;;;2.31;91.71;92631.34;5083381;28;20213;-70
2022/12/23 01:23:29;;;;;;;27.00;21.10;;;;;;;2.34;90.73;92640.38;5092272;28;20207;-69
2022/12/23 01:25:59;;;;;;;27.50;20.57;;;;;;;2.32;90.80;92642.44;5091263;28;20220;-70
2022/12/23 01:28:25;;;;;;;29.60;20.27;;;;;;;2.27;91.49;92630.25;5083712;28;20201;-69
2022/12/23 01:30:50;;;;;;;27.07;18.90;;;;;;;2.17;92.25;92626.66;5088451;28;20248;-69
2022/12/23 01:33:16;;;;;;;27.37;19.27;;;;;;;2.38;91.97;92637.13;5091623;28;20184;-70
2022/12/23 01:35:41;;;;;;;25.60;19.03;;;;;;;2.50;91.04;92637.91;5086874;28;20236;-70
2022/12/23 01:38:06;;;;;;;21.10;17.87;;;;;;;2.58;90.30;92636.75;5091556;28;20196;-70
2022/12/23 01:40:36;;;;;;;27.57;20.07;;;;;;;2.45;90.75;92606.09;5090564;28;20863;-69
2022/12/23 01:43:01;;;;;;;26.00;19.33;;;;;;;2.56;90.99;92602.69;5091408;28;20253;-70
2022/12/23 01:45:29;;;;;;;28.27;20.10;;;;;;;2.76;90.61;92618.53;5090854;28;20192;-70
2022/12/23 01:47:58;;;;;;;24.07;19.30;;;;;;;2.89;90.45;92607.94;5091405;28;20195;-70
2022/12/23 01:50:26;;;;;;;22.20;18.60;;;;;;;2.96;89.79;92605.97;5086075;28;20193;-70
2022/12/23 01:53:04;;;;;;;20.30;16.83;;;;;;;2.90;90.92;92615.44;5091757;28;20189;-70
2022/12/23 01:55:35;;;;;;;20.17;18.00;;;;;;;2.92;90.37;92597.16;5084751;28;20303;-70
2022/12/23 01:58:10;;;;;;;20.63;18.43;;;;;;;2.90;90.53;92609.50;5078672;28;20174;-70
2022/12/23 02:11:36;;;;;;;18.80;16.83;;;;;;;3.05;88.87;92586.56;5083734;28;20247;-70
2022/12/23 02:17:30;;;;;;;24.77;18.57;;;;;;;3.07;89.16;92576.78;5083527;28;20308;-71
2022/12/23 02:20:31;;;;;;;28.67;20.10;;;;;;;2.99;89.51;92566.84;5076924;28;21313;-69
2022/12/23 02:23:18;;;;;;;21.27;19.07;;;;;;;2.75;89.60;92522.41;5001113;28;20293;-69
2022/12/23 02:26:09;;;;;;;22.13;19.27;;;;;;;3.13;89.37;92579.19;5078361;28;20235;-69
2022/12/23 02:29:02;;;;;;;27.83;20.17;;;;;;;3.21;88.64;92565.13;5064842;28;20207;-70
2022/12/23 02:31:27;;;;;;;21.57;18.83;;;;;;;3.12;89.65;92553.66;5089778;28;20239;-70
2022/12/23 02:34:11;;;;;;;24.93;19.90;;;;;;;3.11;89.31;92570.91;5086245;28;20193;-69
2022/12/23 02:37:02;;;;;;;25.13;19.03;;;;;;;3.17;88.80;92564.03;5088410;28;20227;-70
2022/12/23 02:39:34;;;;;;;22.30;18.57;;;;;;;3.30;88.10;92576.59;5046564;28;20780;-69
2022/12/23 02:42:30;;;;;;;22.57;19.37;;;;;;;2.94;87.66;92518.56;5079176;28;20216;-69
2022/12/23 02:44:58;;;;;;;26.07;18.03;;;;;;;3.30;87.58;92581.78;5089285;28;20185;-70
2022/12/23 02:47:32;;;;;;;20.53;17.17;;;;;;;3.36;87.50;92572.31;5088911;28;20227;-70
2022/12/23 02:50:05;;;;;;;21.37;17.20;;;;;;;3.33;87.19;92560.69;5086341;28;20268;-69
2022/12/23 02:52:34;;;;;;;19.80;17.33;;;;;;;3.49;87.11;92583.09;5086159;28;20239;-69
2022/12/23 02:55:04;;;;;;;24.53;19.43;;;;;;;3.47;88.02;92577.38;5080634;28;20213;-69
2022/12/23 02:57:34;;;;;;;21.70;18.67;;;;;;;3.57;87.48;92564.63;5089696;28;20236;-69
2022/12/23 03:00:02;;;;;;;18.53;16.40;;;;;;;3.38;88.82;92560.75;5086938;28;20189;-71
2022/12/23 03:02:29;;;;;;;25.77;15.53;;;;;;;3.39;87.83;92551.22;5080618;28;20216;-70
2022/12/23 03:04:54;;;;;;;21.17;18.07;;;;;;;3.53;88.26;92558.41;5090083;28;20181;-69
2022/12/23 03:07:28;;;;;;;18.67;16.57;;;;;;;3.55;88.48;92565.91;5089358;28;20243;-70
2022/12/23 03:10:12;;;;;;;21.47;15.00;;;;;;;3.58;87.94;92557.69;5090087;28;20180;-70
2022/12/23 03:12:51;;;;;;;20.43;16.20;;;;;;;3.54;88.49;92570.28;5089145;28;20224;-70
2022/12/23 03:15:36;;;;;;;21.90;16.70;;;;;;;3.38;89.35;92565.91;5083053;28;20328;-69
2022/12/23 03:18:24;;;;;;;17.47;15.43;;;;;;;3.67;87.78;92575.13;5088962;28;20207;-69
2022/12/23 03:21:01;;;;;;;22.93;18.73;;;;;;;3.48;87.10;92576.38;5085037;28;20221;-69
2022/12/23 03:23:41;;;;;;;37.23;24.47;;;;;;;3.35;88.21;92571.53;5090486;28;20238;-69
2022/12/23 03:26:28;;;;;;;41.40;26.97;;;;;;;2.55;92.07;92570.22;5089121;28;20231;-70
2022/12/23 03:29:11;;;;;;;43.10;28.23;;;;;;;2.77;91.97;92563.41;5089539;28;20173;-70
2022/12/23 03:31:37;;;;;;;55.23;34.47;;;;;;;2.94;90.78;92556.47;5088260;28;20236;-70
2022/12/23 03:34:10;;;;;;;55.50;33.00;;;;;;;2.77;91.11;92555.66;5065996;28;21143;-71
2022/12/23 03:37:04;;;;;;;57.87;33.03;;;;;;;3.01;90.03;92546.75;5088999;28;20225;-69
2022/12/23 03:39:39;;;;;;;50.07;33.50;;;;;;;2.84;91.29;92545.97;5089796;28;20188;-70
2022/12/23 03:42:13;;;;;;;57.20;37.73;;;;;;;2.46;91.85;92556.91;5085212;28;20299;-70
2022/12/23 03:44:43;;;;;;;85.20;45.93;;;;;;;2.40;92.50;92546.75;5084030;28;20249;-70
2022/12/23 03:47:19;;;;;;;83.00;48.17;;;;;;;2.35;93.55;92577.59;5075466;28;20239;-69
2022/12/23 03:49:54;;;;;;;89.43;51.53;;;;;;;2.13;94.40;92562.00;5085318;28;20825;-70
2022/12/23 03:52:27;;;;;;;97.43;49.00;;;;;;;2.17;94.70;92570.81;5087915;28;20235;-69
2022/12/23 03:54:54;;;;;;;87.80;48.37;;;;;;;2.31;94.57;92584.97;5088425;28;20204;-69
2022/12/23 03:57:52;;;;;;;91.10;49.43;;;;;;;2.38;94.12;92569.41;5077190;28;20773;-71
2022/12/23 04:00:17;;;;;;;93.33;50.13;;;;;;;2.38;94.45;92571.97;5055637;28;20212;-71
2022/12/23 04:02:55;;;;;;;85.10;50.10;;;;;;;2.39;94.31;92573.53;5078663;28;20284;-70
2022/12/23 04:05:25;;;;;;;86.93;48.60;;;;;;;2.58;94.32;92580.84;5087515;28;20193;-71
2022/12/23 04:07:51;;;;;;;84.23;47.97;;;;;;;2.43;93.40;92577.22;5089467;28;20304;-70
2022/12/23 04:10:16;;;;;;;83.63;48.00;;;;;;;2.28;94.34;92558.91;5079085;28;20212;-69
2022/12/23 04:12:43;;;;;;;81.03;44.47;;;;;;;2.44;94.59;92583.94;5088907;28;20235;-69
2022/12/23 04:15:09;;;;;;;81.43;46.33;;;;;;;2.38;94.26;92579.69;5088439;28;20208;-70
2022/12/23 04:17:34;;;;;;;85.50;44.03;;;;;;;2.20;95.02;92565.19;5084436;28;20263;-70
2022/12/23 04:20:00;;;;;;;82.90;45.90;;;;;;;2.34;95.43;92560.56;5092354;28;20217;-70
2022/12/23 04:22:25;;;;;;;67.70;40.63;;;;;;;2.56;94.55;92569.19;5092719;28;20288;-69
2022/12/23 04:24:51;;;;;;;61.40;38.60;;;;;;;2.56;94.47;92576.94;5092937;28;20200;-69
2022/12/23 04:27:16;;;;;;;51.30;32.07;;;;;;;2.58;95.34;92555.09;5092076;28;20240;-71
2022/12/23 04:29:42;;;;;;;38.07;28.83;;;;;;;2.59;95.13;92573.88;5088269;28;20274;-71
2022/12/23 04:32:08;;;;;;;36.63;25.77;;;;;;;2.65;95.54;92578.13;5087832;28;20217;-70
2022/12/23 04:34:33;;;;;;;37.60;24.53;;;;;;;2.87;95.36;92581.59;5089606;28;20311;-71
2022/12/23 04:36:58;;;;;;;35.80;24.27;;;;;;;2.85;94.63;92568.94;5082867;28;20225;-71
2022/12/23 04:39:24;;;;;;;30.10;23.63;;;;;;;2.82;94.87;92571.19;5089370;28;20181;-70
2022/12/23 04:41:49;;;;;;;36.97;23.63;;;;;;;2.96;94.65;92562.94;5091628;28;20224;-70
2022/12/23 04:44:15;;;;;;;33.63;22.30;;;;;;;2.70;95.42;92565.31;5085458;28;20188;-71
2022/12/23 04:46:40;;;;;;;35.73;21.97;;;;;;;2.56;96.04;92540.84;5086729;28;20224;-70
2022/12/23 04:49:06;;;;;;;30.23;21.60;;;;;;;2.72;96.95;92555.56;5088237;28;20207;-70
2022/12/23 04:51:31;;;;;;;29.43;21.93;;;;;;;2.56;96.90;92551.16;5092008;28;20778;-70
2022/12/23 04:53:57;;;;;;;28.00;20.10;;;;;;;2.66;97.51;92561.66;5098437;28;20227;-70
2022/12/23 04:56:22;;;;;;;29.10;21.03;;;;;;;2.69;97.40;92554.22;5086430;28;20340;-70
2022/12/23 04:58:47;;;;;;;25.93;19.47;;;;;;;2.72;95.99;92576.97;5089738;28;20216;-70
2022/12/23 05:01:13;;;;;;;26.33;20.60;;;;;;;2.61;95.94;92564.16;5088082;28;20267;-70
2022/12/23 05:03:39;;;;;;;23.37;19.67;;;;;;;2.75;96.15;92586.03;5089191;28;20192;-70
2022/12/23 05:06:05;;;;;;;24.83;19.77;;;;;;;2.90;94.50;92579.34;5091653;28;20229;-70
2022/12/23 05:08:31;;;;;;;23.37;19.23;;;;;;;3.06;93.89;92586.31;5090677;28;20189;-71
2022/12/23 05:10:56;;;;;;;24.57;19.53;;;;;;;3.13;93.70;92578.41;5085769;28;20284;-71
2022/12/23 05:13:21;;;;;;;28.67;22.50;;;;;;;3.09;94.27;92585.06;5091949;28;20200;-70
2022/12/23 05:15:51;;;;;;;33.27;22.10;;;;;;;3.17;94.10;92582.09;5086737;28;20225;-70
2022/12/23 05:18:17;;;;;;;29.10;20.80;;;;;;;3.23;93.33;92587.13;5089440;28;20204;-69
2022/12/23 05:20:43;;;;;;;29.27;20.13;;;;;;;3.10;93.50;92618.34;5090285;28;20236;-68
2022/12/23 05:23:08;;;;;;;25.27;20.80;;;;;;;3.16;95.84;92614.84;5091950;28;20177;-69
2022/12/23 05:25:35;;;;;;;26.07;19.53;;;;;;;3.27;92.80;92605.47;5093466;28;20199;-70
2022/12/23 05:28:01;;;;;;;27.43;22.03;;;;;;;3.22;91.69;92619.06;5096299;28;20181;-68
2022/12/23 05:30:26;;;;;;;24.40;20.07;;;;;;;3.36;91.38;92608.44;5093350;28;20173;-71
2022/12/23 05:32:53;;;;;;;24.57;20.50;;;;;;;3.27;91.51;92600.31;5089049;28;20192;-68
2022/12/23 05:35:19;;;;;;;29.93;22.87;;;;;;;3.45;90.95;92602.66;5091412;28;20275;-68
2022/12/23 05:37:44;;;;;;;29.50;22.90;;;;;;;3.48;91.12;92602.19;5085663;28;20213;-68
2022/12/23 05:40:10;;;;;;;32.97;21.87;;;;;;;3.48;90.71;92596.25;5089143;28;20200;-68
2022/12/23 05:42:35;;;;;;;31.23;21.90;;;;;;;3.52;90.70;92597.34;5088109;28;20220;-68
2022/12/23 05:45:01;;;;;;;27.50;21.77;;;;;;;3.38;91.84;92602.03;5089541;28;20269;-68
2022/12/23 05:47:26;;;;;;;27.63;20.87;;;;;;;3.43;93.00;92596.16;5087206;28;20357;-71
2022/12/23 05:49:51;;;;;;;26.80;21.27;;;;;;;3.32;94.26;92587.47;5085151;28;20192;-68
2022/12/23 05:52:17;;;;;;;26.40;20.50;;;;;;;3.47;93.92;92602.44;5091738;28;20257;-68
2022/12/23 05:54:42;;;;;;;27.87;19.70;;;;;;;3.48;93.40;92602.19;5087779;28;20224;-67
2022/12/23 05:57:07;;;;;;;33.23;22.67;;;;;;;3.45;94.49;92607.81;5087676;28;20221;-69
2022/12/23 05:59:33;;;;;;;32.90;21.57;;;;;;;3.69;100.00;92604.03;5087612;28;20190;-69
2022/12/23 06:01:58;;;;;;;28.93;21.00;;;;;;;3.54;100.00;92615.94;5088700;28;20224;-68
2022/12/23 06:04:24;;;;;;;32.87;24.33;;;;;;;3.34;97.68;92611.25;5087619;28;20185;-67
2022/12/23 06:06:49;;;;;;;42.33;24.83;;;;;;;3.39;96.41;92597.66;5089020;28;20265;-68
2022/12/23 06:09:14;;;;;;;36.07;23.63;;;;;;;3.44;97.03;92597.72;5089757;28;20246;-68
2022/12/23 06:11:40;;;;;;;29.77;22.57;;;;;;;3.53;96.95;92617.75;5088871;28;20225;-71
2022/12/23 06:14:06;;;;;;;36.50;24.97;;;;;;;3.36;97.88;92593.75;5078528;28;20243;-70
2022/12/23 06:16:32;;;;;;;31.30;24.40;;;;;;;3.52;96.78;92608.44;5087246;28;20224;-68
2022/12/23 06:18:57;;;;;;;39.07;24.97;;;;;;;3.44;97.66;92611.41;5086469;28;20184;-66
2022/12/23 06:21:24;;;;;;;42.43;25.50;;;;;;;3.39;97.58;92603.59;5086490;28;20267;-70
2022/12/23 06:23:50;;;;;;;40.23;25.63;;;;;;;3.51;97.57;92608.66;5089203;28;20185;-69
2022/12/23 06:26:15;;;;;;;37.10;23.07;;;;;;;3.39;97.60;92592.50;5087918;28;20240;-72
2022/12/23 06:28:42;;;;;;;38.37;25.10;;;;;;;3.54;97.59;92606.41;5081182;28;20212;-72
2022/12/23 06:31:07;;;;;;;36.90;23.70;;;;;;;3.49;97.44;92603.75;5083816;28;20276;-70
2022/12/23 06:33:33;;;;;;;34.83;23.33;;;;;;;3.50;96.72;92612.28;5088938;28;20282;-70
2022/12/23 06:35:58;;;;;;;35.67;23.43;;;;;;;3.50;97.81;92605.31;5084506;28;20240;-70
2022/12/23 06:38:23;;;;;;;34.03;23.67;;;;;;;3.49;97.50;92590.84;5084797;28;21440;-70
2022/12/23 06:40:49;;;;;;;29.37;21.83;;;;;;;3.59;98.26;92609.06;5084746;28;20228;-70
2022/12/23 06:43:14;;;;;;;32.43;23.10;;;;;;;3.69;97.10;92614.34;5087147;28;20189;-70
2022/12/23 06:45:40;;;;;;;35.50;22.63;;;;;;;3.62;96.96;92595.69;5088223;28;20262;-70
2022/12/23 06:48:06;;;;;;;29.60;21.57;;;;;;;3.81;96.75;92622.81;5083886;28;20189;-68
2022/12/23 06:50:31;;;;;;;44.37;25.13;;;;;;;3.93;96.17;92630.44;5070683;28;20180;-69
2022/12/23 06:52:57;;;;;;;39.07;25.07;;;;;;;4.04;95.06;92622.59;5071006;28;20185;-70
2022/12/23 06:55:22;;;;;;;58.63;28.50;;;;;;;4.12;93.90;92624.78;5080561;28;20215;-71
2022/12/23 06:57:48;;;;;;;42.30;26.60;;;;;;;4.11;94.28;92618.03;5088230;28;20196;-70
2022/12/23 07:00:14;;;;;;;44.03;26.23;;;;;;;3.96;94.97;92611.88;5088545;28;20255;-69
2022/12/23 07:02:39;;;;;;;41.13;26.37;;;;;;;4.03;95.60;92623.59;5087091;28;20227;-71
2022/12/23 07:05:05;;;;;;;37.03;26.57;;;;;;;4.12;95.34;92624.78;5088788;28;20185;-70
2022/12/23 07:07:32;;;;;;;44.43;25.83;;;;;;;4.33;93.59;92629.19;5087553;28;20220;-70
2022/12/23 07:09:57;;;;;;;34.37;25.77;;;;;;;4.36;93.57;92631.28;5088248;28;20192;-70
2022/12/23 07:12:23;;;;;;;36.17;25.80;;;;;;;4.08;94.89;92628.84;5085375;28;20220;-71
2022/12/23 07:14:48;;;;;;;43.50;26.97;;;;;;;3.86;97.70;92633.19;5087234;28;20216;-71
2022/12/23 07:17:14;;;;;;;43.57;29.33;;;;;;;3.53;98.14;92619.53;5075153;28;20230;-71
2022/12/23 07:19:40;;;;;;;36.00;27.37;;;;;;;3.51;99.33;92619.00;5085871;28;20188;-72
2022/12/23 07:22:07;;;;;;;39.40;28.70;;;;;;;3.93;98.20;92620.13;5087981;28;20221;-72
2022/12/23 07:24:32;;;;;;;38.27;26.80;;;;;;;4.04;97.08;92604.53;5088322;28;20177;-71
2022/12/23 07:26:58;;;;;;;48.70;27.23;;;;;;;4.30;96.53;92616.72;5082683;28;20222;-69
2022/12/23 07:29:23;;;;;;;46.73;28.50;;;;;;;4.29;94.47;92615.19;5088437;28;20172;-70
2022/12/23 07:31:48;;;;;;;39.93;27.73;;;;;;;4.34;94.29;92628.16;5073057;28;20581;-71
2022/12/23 07:34:14;;;;;;;43.87;30.17;;;;;;;4.42;93.81;92626.97;5085646;28;20215;-70
2022/12/23 07:36:39;;;;;;;51.40;31.73;;;;;;;4.09;94.71;92627.06;5078652;28;20225;-69
2022/12/23 07:39:05;;;;;;;53.73;35.57;;;;;;;3.65;95.77;92609.91;5086006;28;20831;-70
2022/12/23 07:41:30;;;;;;;58.20;37.93;;;;;;;3.76;96.44;92630.47;5081855;28;20260;-71
2022/12/23 07:43:56;;;;;;;63.07;38.77;;;;;;;3.37;98.65;92649.50;5085946;28;20287;-71
2022/12/23 07:46:21;;;;;;;64.27;40.30;;;;;;;3.11;98.25;92637.19;5082963;28;20225;-68
2022/12/23 07:48:46;;;;;;;69.53;40.67;;;;;;;3.26;97.87;92630.50;5088126;28;20184;-70
2022/12/23 07:51:12;;;;;;;65.73;41.00;;;;;;;3.39;96.83;92642.31;5087941;28;20777;-69
2022/12/23 07:53:37;;;;;;;70.03;40.57;;;;;;;3.50;96.00;92646.63;5088354;28;20229;-68
2022/12/23 07:56:03;;;;;;;67.00;41.27;;;;;;;3.64;93.84;92653.03;5088915;28;20235;-68
2022/12/23 07:58:29;;;;;;;67.90;39.77;;;;;;;3.67;92.04;92651.75;5088652;28;20177;-68
2022/12/23 08:01:03;;;;;;;69.07;39.13;;;;;;;3.53;93.60;92650.50;5090714;28;20220;-69
2022/12/23 08:03:28;;;;;;;67.87;40.80;;;;;;;3.56;93.74;92643.09;5091250;28;20263;-68
2022/12/23 08:06:05;;;;;;;61.73;40.53;;;;;;;3.75;92.55;92644.38;5090960;28;20232;-69
2022/12/23 08:08:31;;;;;;;61.60;38.00;;;;;;;3.78;92.90;92661.22;5079334;28;20257;-68
2022/12/23 08:10:59;;;;;;;57.63;36.90;;;;;;;3.82;93.35;92660.50;5092039;28;20221;-70
2022/12/23 08:13:24;;;;;;;64.30;37.20;;;;;;;3.64;94.64;92655.59;5087707;28;20170;-69
2022/12/23 08:15:56;;;;;;;57.93;34.73;;;;;;;3.85;94.18;92660.03;5088334;28;20831;-69
2022/12/23 08:18:22;;;;;;;49.23;32.00;;;;;;;4.23;91.57;92647.16;5092508;28;20177;-70
2022/12/23 08:20:55;;;;;;;48.40;30.67;;;;;;;4.61;87.50;92670.34;5091718;28;20722;-69
2022/12/23 08:23:21;;;;;;;47.70;29.60;;;;;;;4.59;87.23;92671.63;5086427;28;20184;-68
2022/12/23 08:25:46;;;;;;;37.87;26.20;;;;;;;4.86;83.82;92668.06;5087022;28;20223;-69
2022/12/23 08:28:12;;;;;;;39.70;26.60;;;;;;;4.83;83.78;92658.19;5091179;28;20212;-69
2022/12/23 08:30:37;;;;;;;39.23;27.50;;;;;;;4.94;83.34;92664.25;5095768;28;20207;-69
2022/12/23 08:33:02;;;;;;;43.03;27.87;;;;;;;5.21;82.04;92672.84;5100044;28;20184;-68
2022/12/23 08:35:29;;;;;;;39.13;27.27;;;;;;;5.06;83.05;92666.72;5097096;28;20220;-68
2022/12/23 08:37:54;;;;;;;37.13;25.10;;;;;;;5.07;81.60;92668.28;5092339;28;20177;-68
2022/12/23 08:40:19;;;;;;;41.13;27.53;;;;;;;5.06;81.41;92674.47;5092273;28;20279;-67
2022/12/23 08:42:45;;;;;;;39.97;29.33;;;;;;;5.09;82.08;92668.81;5084147;28;20720;-68
2022/12/23 08:45:11;;;;;;;46.57;30.20;;;;;;;5.28;81.75;92664.84;5086353;28;20189;-69
2022/12/23 08:47:36;;;;;;;47.90;30.03;;;;;;;5.33;81.23;92668.28;5092061;28;20278;-69
2022/12/23 08:50:03;;;;;;;44.43;31.53;;;;;;;5.36;82.01;92654.06;5074186;28;20189;-69
2022/12/23 08:52:28;;;;;;;40.43;29.23;;;;;;;5.64;80.68;92661.53;5091998;28;20213;-69
2022/12/23 08:54:53;;;;;;;40.30;28.73;;;;;;;5.56;80.81;92664.59;5091839;28;20209;-68
2022/12/23 08:57:19;;;;;;;42.50;28.50;;;;;;;5.62;80.73;92668.81;5084967;28;20236;-69
2022/12/23 08:59:45;;;;;;;40.63;28.57;;;;;;;5.58;81.26;92644.41;5090266;28;20219;-69
2022/12/23 09:02:11;;;;;;;39.47;28.73;;;;;;;6.05;80.12;92658.25;5084625;28;20284;-69
2022/12/23 09:04:37;;;;;;;44.70;29.70;;;;;;;6.31;79.77;92652.19;5073659;28;20181;-69
2022/12/23 09:07:02;;;;;;;45.67;28.33;;;;;;;6.34;78.85;92659.47;5084285;28;20221;-69
2022/12/23 09:09:28;;;;;;;45.10;30.20;;;;;;;6.16;79.84;92660.66;5090066;28;20226;-68
2022/12/23 09:11:53;;;;;;;41.60;28.93;;;;;;;5.92;81.04;92651.69;5091502;28;20224;-69
2022/12/23 09:14:18;;;;;;;42.63;29.70;;;;;;;6.25;79.85;92666.16;5083054;28;20240;-69
2022/12/23 09:16:44;;;;;;;44.83;27.93;;;;;;;6.45;78.91;92666.28;5082559;28;20228;-68
2022/12/23 09:19:09;;;;;;;39.57;25.37;;;;;;;6.50;79.18;92661.91;5091277;28;20193;-68
2022/12/23 09:21:35;;;;;;;38.23;29.10;;;;;;;6.46;79.29;92652.25;5085094;28;20229;-68
2022/12/23 09:24:00;;;;;;;36.70;27.13;;;;;;;7.03;77.47;92658.22;5085684;28;20185;-69
2022/12/23 09:26:28;;;;;;;36.17;27.30;;;;;;;7.11;76.47;92672.50;5071626;28;20282;-71
2022/12/23 09:28:55;;;;;;;39.47;27.57;;;;;;;7.58;74.52;92670.53;5087261;28;20200;-70
2022/12/23 09:31:21;;;;;;;44.60;27.07;;;;;;;7.99;72.48;92666.88;5090023;28;20250;-71
2022/12/23 09:33:49;;;;;;;45.53;29.87;;;;;;;7.65;74.86;92666.63;5087062;28;20192;-71
2022/12/23 09:36:15;;;;;;;50.30;31.80;;;;;;;7.64;74.60;92670.25;5087567;28;20227;-71
2022/12/23 09:38:40;;;;;;;46.43;31.80;;;;;;;7.78;73.31;92673.91;5089838;28;20192;-71
2022/12/23 09:41:14;;;;;;;49.83;31.60;;;;;;;7.96;70.94;92667.41;5084712;28;20248;-71
2022/12/23 09:43:45;;;;;;;51.07;32.33;;;;;;;7.72;72.19;92664.56;5088743;28;20212;-71
2022/12/23 09:46:21;;;;;;;68.87;40.47;;;;;;;8.15;72.45;92671.81;5082372;28;20220;-71
2022/12/23 09:48:58;;;;;;;74.70;43.77;;;;;;;8.22;71.93;92668.94;5090439;28;20185;-71
2022/12/23 09:51:23;;;;;;;77.50;45.23;;;;;;;7.84;72.57;92667.66;5089774;28;20220;-71
2022/12/23 09:53:55;;;;;;;72.10;44.33;;;;;;;8.23;71.11;92673.16;5090089;28;20206;-71
2022/12/23 09:56:43;;;;;;;70.83;41.60;;;;;;;8.52;69.49;92665.53;5082441;28;20332;-71
2022/12/23 09:59:20;;;;;;;78.00;45.60;;;;;;;8.06;72.02;92662.22;5086088;28;20291;-71
2022/12/23 10:01:57;;;;;;;70.40;41.13;;;;;;;8.30;70.74;92670.25;5080926;28;20247;-71
2022/12/23 10:04:49;;;;;;;68.83;41.03;;;;;;;8.60;69.51;92670.22;5089597;28;20214;-71
2022/12/23 10:07:36;;;;;;;82.40;46.17;;;;;;;8.22;71.88;92665.59;5080314;28;20249;-71
2022/12/23 10:10:25;;;;;;;80.93;46.00;;;;;;;8.34;71.59;92668.72;5086384;28;20180;-71
2022/12/23 10:12:53;;;;;;;81.83;47.17;;;;;;;7.95;72.00;92619.84;5080194;28;20276;-71
2022/12/23 10:15:30;;;;;;;84.57;49.07;;;;;;;8.81;70.39;92663.91;5085056;28;20216;-71
2022/12/23 10:18:01;;;;;;;78.03;45.83;;;;;;;8.80;70.60;92652.72;5086589;28;20216;-71
2022/12/23 10:20:46;;;;;;;75.90;48.63;;;;;;;8.52;71.63;92657.72;5088904;28;20213;-72
2022/12/23 10:23:16;;;;;;;85.07;47.73;;;;;;;8.29;72.80;92656.50;5083915;28;20189;-72
2022/12/23 10:25:50;;;;;;;75.20;47.07;;;;;;;8.53;71.36;92657.47;5088120;28;20227;-72
2022/12/23 10:28:16;;;;;;;75.03;47.20;;;;;;;8.77;70.17;92665.47;5077552;28;20196;-71
2022/12/23 10:30:52;;;;;;;81.77;49.27;;;;;;;8.79;70.22;92650.38;5088346;28;20283;-71
2022/12/23 10:33:36;;;;;;;73.37;46.27;;;;;;;9.30;68.42;92654.28;5087429;28;20192;-71
2022/12/23 10:36:25;;;;;;;79.53;47.07;;;;;;;9.47;66.14;92652.13;5088535;28;20234;-71
2022/12/23 10:39:00;;;;;;;77.37;48.37;;;;;;;8.90;69.35;92636.28;5076586;28;20228;-71
2022/12/23 10:41:47;;;;;;;78.97;46.33;;;;;;;9.09;70.20;92635.38;5084610;28;20212;-71
2022/12/23 10:44:15;;;;;;;60.93;40.03;;;;;;;9.11;70.35;92627.31;5074472;28;20189;-70
2022/12/23 10:47:11;;;;;;;56.67;38.10;;;;;;;9.40;70.34;92628.19;5087983;28;20238;-72
2022/12/23 10:49:50;;;;;;;67.13;41.60;;;;;;;9.30;69.30;92612.63;5086446;28;20248;-70
2022/12/23 10:52:20;;;;;;;62.50;40.47;;;;;;;9.14;70.27;92626.78;5087703;28;20286;-72
2022/12/23 10:54:46;;;;;;;65.00;39.83;;;;;;;8.75;70.25;92612.88;5088797;28;20192;-69
2022/12/23 10:57:15;;;;;;;69.27;42.77;;;;;;;8.55;71.21;92624.16;5083020;28;20243;-70
2022/12/23 10:59:40;;;;;;;70.83;42.50;;;;;;;8.24;72.38;92625.28;5088260;28;20193;-70
2022/12/23 11:02:12;;;;;;;84.73;41.40;;;;;;;8.65;70.98;92621.53;5087971;28;20223;-70
2022/12/23 11:04:43;;;;;;;70.20;41.93;;;;;;;8.59;71.02;92614.78;5087423;28;20307;-72
2022/12/23 11:07:12;;;;;;;74.40;45.10;;;;;;;8.72;70.53;92616.03;5086385;28;20217;-71
2022/12/23 11:09:45;;;;;;;73.57;44.77;;;;;;;9.01;69.67;92632.59;5088327;28;20203;-71
2022/12/23 11:12:11;;;;;;;73.30;44.03;;;;;;;9.01;69.90;92622.16;5087240;28;20246;-71
2022/12/23 11:14:53;;;;;;;71.40;44.47;;;;;;;9.23;68.25;92630.38;5088025;28;20223;-71
2022/12/23 11:17:27;;;;;;;85.97;47.80;;;;;;;8.73;72.01;92628.03;5088001;28;20224;-71
2022/12/23 11:20:18;;;;;;;77.73;47.10;;;;;;;8.77;70.57;92629.03;5085651;28;20181;-71
2022/12/23 11:22:49;;;;;;;78.47;44.37;;;;;;;8.67;71.94;92613.47;5084494;28;20232;-71
2022/12/23 11:25:28;;;;;;;71.57;43.63;;;;;;;8.48;72.46;92628.09;5082878;28;20177;-72
2022/12/23 11:28:01;;;;;;;76.50;45.20;;;;;;;8.79;71.56;92617.31;5090379;28;20215;-71
2022/12/23 11:30:28;;;;;;;71.93;45.80;;;;;;;8.86;72.69;92623.00;5090715;28;20181;-72
2022/12/23 11:32:55;;;;;;;76.70;43.57;;;;;;;9.26;69.85;92620.19;5085384;28;20200;-72
2022/12/23 11:35:32;;;;;;;70.90;42.50;;;;;;;9.25;69.79;92613.44;5087683;28;20212;-72
2022/12/23 11:37:59;;;;;;;71.17;45.40;;;;;;;9.32;69.12;92619.09;5089374;28;20183;-71
2022/12/23 11:40:34;;;;;;;72.13;43.63;;;;;;;9.43;67.71;92619.84;5091086;28;20192;-71
2022/12/23 11:43:04;;;;;;;68.57;42.27;;;;;;;9.17;68.44;92634.03;5095088;28;20183;-70
2022/12/23 11:45:35;;;;;;;73.83;42.53;;;;;;;8.91;70.12;92633.41;5082130;28;20276;-72
2022/12/23 11:48:05;;;;;;;74.10;43.93;;;;;;;8.96;69.42;92635.19;5092100;28;20215;-71
2022/12/23 11:50:37;;;;;;;69.23;42.00;;;;;;;9.04;68.65;92632.81;5092231;28;20197;-71
2022/12/23 11:53:23;;;;;;;69.33;42.63;;;;;;;9.02;68.93;92636.72;5090844;28;20215;-70
2022/12/23 11:56:06;;;;;;;78.53;46.27;;;;;;;9.00;68.91;92633.59;5089634;28;20276;-71
2022/12/23 11:59:21;;;;;;;83.60;50.67;;;;;;;9.23;68.92;92633.00;5093138;28;20172;-71
2022/12/23 12:01:47;;;;;;;88.47;51.70;;;;;;;9.18;69.52;92636.38;5083384;28;20236;-71
2022/12/23 12:04:21;;;;;;;103.13;54.50;;;;;;;8.60;70.93;92608.53;5094881;28;20252;-72